< Typhoon 199303 1993 Season Typhoon 199305 >
Typhoon 199304 (NATHAN)
General InformationTrack Information on Google MapsDetailed Wind InformationList of All Images || NewsDisaster Info.ResourceGoogle EarthGE AnimationAtom FeedGeoJSON
Detalied Best Track (Time Zone = UTC)
Year Month Day Hour Lat. Long. Pressure (hPa) Wind (kt) Class Image Chart
1993 7 19 06 12.7 150.8 1006 0 2 Image Chart
1993 7 19 12 13.5 150.1 1006 0 2 Image Chart
1993 7 19 18 14.1 149.2 1004 0 2 Image Chart
1993 7 20 00 14.6 148.4 1000 35 3 Image Chart
1993 7 20 06 15.3 147.4 992 45 3 Image Chart
1993 7 20 12 15.8 146.5 990 45 3 Image Chart
1993 7 20 18 16.5 145.5 990 45 3 Image Chart
1993 7 21 00 17.5 144.3 990 45 3 Image Chart
1993 7 21 06 18.4 143.0 990 45 3 Image Chart
1993 7 21 12 19.0 142.0 990 45 3 Image Chart
1993 7 21 18 19.8 140.9 990 45 3 Image Chart
1993 7 22 00 20.4 140.5 990 45 3 Image Chart
1993 7 22 06 21.1 140.6 990 45 3 Image Chart
1993 7 22 12 21.6 140.5 990 45 3 Image Chart
1993 7 22 18 22.0 140.3 990 45 3 Image Chart
1993 7 23 00 22.3 140.1 985 50 4 Image Chart
1993 7 23 06 22.7 139.9 985 50 4 Image Chart
1993 7 23 12 23.3 139.8 985 50 4 Image Chart
1993 7 23 15 23.9 139.7 985 50 4 Image Chart
1993 7 23 18 24.5 139.5 980 55 4 Image Chart
1993 7 23 21 25.4 139.2 980 55 4 Image Chart
1993 7 24 00 26.7 138.7 980 55 4 Image Chart
1993 7 24 03 28.1 138.2 980 55 4 Image Chart
1993 7 24 06 29.5 137.7 980 55 4 Image Chart
1993 7 24 09 30.9 137.2 980 55 4 Image Chart
1993 7 24 12 32.2 136.3 985 50 4 Image Chart
1993 7 24 15 33.0 135.5 985 50 4 Image Chart
1993 7 24 17 33.7 134.7 990 45 3 Image Chart
1993 7 24 18 34.1 134.7 990 45 3 Image Chart
1993 7 24 19 34.5 134.5 994 40 3 Image Chart
1993 7 24 21 35.1 133.8 996 35 3 Image Chart
1993 7 25 00 35.9 133.1 998 35 3 Image Chart
1993 7 25 03 36.5 133.0 1000 0 6 Image Chart
1993 7 25 06 37.0 133.0 1004 0 6 Image Chart
1993 7 25 12 38.0 133.5 1006 0 6 Image Chart
1993 7 25 18 39.0 134.0 1006 0 6 Image Chart
1993 7 26 00 40.0 135.0 1008 0 6 Image Chart
1993 7 26 06 40.0 135.0 1008 0 6 Image Chart
1993 7 26 12 40.5 135.5 1010 0 6 Image Chart
1993 7 26 18 41.0 135.5 1010 0 6 Image Chart
1993 7 27 00 41.5 135.5 1012 0 6 Image Chart
Japan Meteorological Agency Best Track Data | Correction Date : 1994-01-10
< Typhoon 199303 1993 Season Typhoon 199305 >

Help